sensor_id;sensor_type;location;lat;lon;timestamp;pressure;altitude;pressure_sealevel;temperature;humidity
75788;BME280;64406;50.024;14.492;2022-12-15T00:00:52;96766.03;;;-4.16;82.88
75788;BME280;64406;50.024;14.492;2022-12-15T00:03:36;96765.44;;;-4.18;82.08
75788;BME280;64406;50.024;14.492;2022-12-15T00:06:21;96765.03;;;-4.15;82.69
75788;BME280;64406;50.024;14.492;2022-12-15T00:09:04;96754.94;;;-4.18;82.42
75788;BME280;64406;50.024;14.492;2022-12-15T00:11:49;96767.94;;;-4.23;83.12
75788;BME280;64406;50.024;14.492;2022-12-15T00:14:33;96778.38;;;-4.16;82.95
75788;BME280;64406;50.024;14.492;2022-12-15T00:17:17;96765.66;;;-4.19;82.70
75788;BME280;64406;50.024;14.492;2022-12-15T00:20:02;96772.53;;;-4.18;82.43
75788;BME280;64406;50.024;14.492;2022-12-15T00:22:47;96775.72;;;-4.16;83.10
75788;BME280;64406;50.024;14.492;2022-12-15T00:25:31;96780.34;;;-4.12;82.80
75788;BME280;64406;50.024;14.492;2022-12-15T00:28:15;96784.72;;;-4.05;82.36
75788;BME280;64406;50.024;14.492;2022-12-15T00:30:59;96779.69;;;-4.07;81.15
75788;BME280;64406;50.024;14.492;2022-12-15T00:33:43;96778.91;;;-4.26;82.03
75788;BME280;64406;50.024;14.492;2022-12-15T00:36:27;96791.16;;;-4.20;81.13
75788;BME280;64406;50.024;14.492;2022-12-15T00:39:11;96793.00;;;-4.20;81.95
75788;BME280;64406;50.024;14.492;2022-12-15T00:41:37;96790.94;;;-4.37;82.00
75788;BME280;64406;50.024;14.492;2022-12-15T00:44:02;96788.91;;;-4.34;81.80
75788;BME280;64406;50.024;14.492;2022-12-15T00:46:28;96774.59;;;-4.39;81.98
75788;BME280;64406;50.024;14.492;2022-12-15T00:49:12;96799.75;;;-4.49;81.30
75788;BME280;64406;50.024;14.492;2022-12-15T00:51:56;96791.00;;;-4.43;80.89
75788;BME280;64406;50.024;14.492;2022-12-15T00:54:40;96796.56;;;-4.51;80.71
75788;BME280;64406;50.024;14.492;2022-12-15T00:57:24;96801.41;;;-4.48;80.88
75788;BME280;64406;50.024;14.492;2022-12-15T01:00:09;96795.75;;;-4.52;80.51
75788;BME280;64406;50.024;14.492;2022-12-15T01:02:53;96810.72;;;-4.52;80.61
75788;BME280;64406;50.024;14.492;2022-12-15T01:05:37;96811.38;;;-4.57;80.72
75788;BME280;64406;50.024;14.492;2022-12-15T01:08:21;96808.16;;;-4.59;81.53
75788;BME280;64406;50.024;14.492;2022-12-15T01:11:05;96811.16;;;-4.55;81.39
75788;BME280;64406;50.024;14.492;2022-12-15T01:13:49;96814.22;;;-4.58;81.56
75788;BME280;64406;50.024;14.492;2022-12-15T01:16:33;96819.13;;;-4.62;82.62
75788;BME280;64406;50.024;14.492;2022-12-15T01:19:17;96827.63;;;-4.67;82.58
75788;BME280;64406;50.024;14.492;2022-12-15T01:22:01;96837.63;;;-4.57;82.07
75788;BME280;64406;50.024;14.492;2022-12-15T01:24:27;96832.59;;;-4.58;81.84
75788;BME280;64406;50.024;14.492;2022-12-15T01:26:52;96848.50;;;-4.72;82.20
75788;BME280;64406;50.024;14.492;2022-12-15T01:29:18;96845.41;;;-4.87;83.10
75788;BME280;64406;50.024;14.492;2022-12-15T01:31:43;96842.38;;;-4.90;82.38
75788;BME280;64406;50.024;14.492;2022-12-15T01:34:09;96840.84;;;-4.98;82.88
75788;BME280;64406;50.024;14.492;2022-12-15T01:36:35;96844.78;;;-5.14;82.96
75788;BME280;64406;50.024;14.492;2022-12-15T01:39:00;96841.28;;;-5.33;83.26
75788;BME280;64406;50.024;14.492;2022-12-15T01:41:26;96846.03;;;-5.55;83.36
75788;BME280;64406;50.024;14.492;2022-12-15T01:43:52;96849.94;;;-5.64;84.33
75788;BME280;64406;50.024;14.492;2022-12-15T01:46:20;96850.19;;;-5.72;83.91
75788;BME280;64406;50.024;14.492;2022-12-15T01:48:59;96853.03;;;-5.73;84.49
75788;BME280;64406;50.024;14.492;2022-12-15T01:51:39;96849.66;;;-5.87;85.00
75788;BME280;64406;50.024;14.492;2022-12-15T01:54:13;96852.13;;;-5.92;85.53
75788;BME280;64406;50.024;14.492;2022-12-15T01:56:50;96856.16;;;-5.96;85.01
75788;BME280;64406;50.024;14.492;2022-12-15T01:59:22;96855.81;;;-6.07;85.06
75788;BME280;64406;50.024;14.492;2022-12-15T02:01:49;96861.09;;;-6.13;85.19
75788;BME280;64406;50.024;14.492;2022-12-15T02:04:17;96856.81;;;-6.08;85.61
75788;BME280;64406;50.024;14.492;2022-12-15T02:06:44;96857.03;;;-6.16;86.28
75788;BME280;64406;50.024;14.492;2022-12-15T02:09:09;96857.69;;;-6.27;85.62
75788;BME280;64406;50.024;14.492;2022-12-15T02:17:50;96871.44;;;-6.45;85.41
75788;BME280;64406;50.024;14.492;2022-12-15T02:20:40;96877.50;;;-6.64;84.68
75788;BME280;64406;50.024;14.492;2022-12-15T02:26:22;96890.78;;;-6.59;83.62
75788;BME280;64406;50.024;14.492;2022-12-15T02:31:53;96891.41;;;-6.70;83.64
75788;BME280;64406;50.024;14.492;2022-12-15T02:34:48;96899.66;;;-6.60;83.24
75788;BME280;64406;50.024;14.492;2022-12-15T02:37:23;96906.91;;;-6.62;84.42
75788;BME280;64406;50.024;14.492;2022-12-15T02:39:51;96925.03;;;-6.67;84.12
75788;BME280;64406;50.024;14.492;2022-12-15T02:42:17;96922.59;;;-6.75;83.95
75788;BME280;64406;50.024;14.492;2022-12-15T02:45:13;96921.81;;;-6.76;84.55
75788;BME280;64406;50.024;14.492;2022-12-15T02:50:45;96922.00;;;-6.58;83.14
75788;BME280;64406;50.024;14.492;2022-12-15T02:56:04;96927.25;;;-6.58;82.80
75788;BME280;64406;50.024;14.492;2022-12-15T02:59:09;96927.84;;;-6.62;83.64
75788;BME280;64406;50.024;14.492;2022-12-15T03:04:06;96933.50;;;-6.59;83.73
75788;BME280;64406;50.024;14.492;2022-12-15T03:06:33;96931.88;;;-6.40;83.36
75788;BME280;64406;50.024;14.492;2022-12-15T03:08:58;96937.50;;;-6.30;83.36
75788;BME280;64406;50.024;14.492;2022-12-15T03:11:24;96932.44;;;-6.24;83.70
75788;BME280;64406;50.024;14.492;2022-12-15T03:13:51;96932.66;;;-6.19;83.79
75788;BME280;64406;50.024;14.492;2022-12-15T03:16:17;96931.19;;;-6.02;83.23
75788;BME280;64406;50.024;14.492;2022-12-15T03:18:42;96934.59;;;-6.02;83.06
75788;BME280;64406;50.024;14.492;2022-12-15T03:21:08;96934.59;;;-5.95;82.60
75788;BME280;64406;50.024;14.492;2022-12-15T03:23:34;96941.06;;;-5.91;82.59
75788;BME280;64406;50.024;14.492;2022-12-15T03:25:59;96948.31;;;-5.93;82.66
75788;BME280;64406;50.024;14.492;2022-12-15T03:28:25;96945.22;;;-5.77;82.12
75788;BME280;64406;50.024;14.492;2022-12-15T03:30:50;96953.91;;;-5.83;82.72
75788;BME280;64406;50.024;14.492;2022-12-15T03:33:16;96948.88;;;-5.84;82.38
75788;BME280;64406;50.024;14.492;2022-12-15T03:35:42;96964.41;;;-5.89;82.37
75788;BME280;64406;50.024;14.492;2022-12-15T03:38:07;96961.63;;;-5.94;82.70
75788;BME280;64406;50.024;14.492;2022-12-15T03:40:33;96962.25;;;-6.06;82.86
75788;BME280;64406;50.024;14.492;2022-12-15T03:42:59;96964.69;;;-6.11;82.73
75788;BME280;64406;50.024;14.492;2022-12-15T03:45:26;96969.13;;;-6.24;82.23
75788;BME280;64406;50.024;14.492;2022-12-15T03:47:53;96967.09;;;-6.22;83.54
75788;BME280;64406;50.024;14.492;2022-12-15T03:50:21;96970.16;;;-6.19;83.02
75788;BME280;64406;50.024;14.492;2022-12-15T03:52:52;96979.41;;;-6.16;82.34
75788;BME280;64406;50.024;14.492;2022-12-15T03:55:19;96989.66;;;-6.15;83.29
75788;BME280;64406;50.024;14.492;2022-12-15T03:57:45;96986.25;;;-6.09;82.10
75788;BME280;64406;50.024;14.492;2022-12-15T04:00:12;96978.59;;;-6.04;81.92
75788;BME280;64406;50.024;14.492;2022-12-15T04:02:41;96989.47;;;-6.07;82.24
75788;BME280;64406;50.024;14.492;2022-12-15T04:05:14;96995.09;;;-5.96;81.98
75788;BME280;64406;50.024;14.492;2022-12-15T04:07:40;96991.47;;;-6.02;82.46
75788;BME280;64406;50.024;14.492;2022-12-15T04:10:06;96987.81;;;-5.94;82.51
75788;BME280;64406;50.024;14.492;2022-12-15T04:12:31;96997.13;;;-5.98;82.31
75788;BME280;64406;50.024;14.492;2022-12-15T04:14:57;97001.34;;;-5.91;82.35
75788;BME280;64406;50.024;14.492;2022-12-15T04:17:23;97005.38;;;-5.95;82.90
75788;BME280;64406;50.024;14.492;2022-12-15T04:19:48;97007.16;;;-5.89;82.14
75788;BME280;64406;50.024;14.492;2022-12-15T04:22:32;97018.84;;;-5.78;82.29
75788;BME280;64406;50.024;14.492;2022-12-15T04:24:58;97011.56;;;-5.83;81.39
75788;BME280;64406;50.024;14.492;2022-12-15T04:27:42;97037.81;;;-5.89;81.52
75788;BME280;64406;50.024;14.492;2022-12-15T04:30:26;97026.75;;;-5.91;81.82
75788;BME280;64406;50.024;14.492;2022-12-15T04:33:10;97035.63;;;-5.92;81.69
75788;BME280;64406;50.024;14.492;2022-12-15T04:35:54;97031.75;;;-5.90;81.86
75788;BME280;64406;50.024;14.492;2022-12-15T04:38:38;97033.19;;;-5.87;82.59
75788;BME280;64406;50.024;14.492;2022-12-15T04:41:23;97036.44;;;-5.92;81.71
75788;BME280;64406;50.024;14.492;2022-12-15T04:44:08;97037.47;;;-5.93;81.75
75788;BME280;64406;50.024;14.492;2022-12-15T04:46:53;97039.06;;;-6.12;82.52
75788;BME280;64406;50.024;14.492;2022-12-15T04:49:37;97046.13;;;-6.12;82.85
75788;BME280;64406;50.024;14.492;2022-12-15T04:52:21;97033.63;;;-6.10;82.40
75788;BME280;64406;50.024;14.492;2022-12-15T04:55:06;97031.41;;;-6.07;82.57
75788;BME280;64406;50.024;14.492;2022-12-15T04:57:50;97034.03;;;-6.13;81.74
75788;BME280;64406;50.024;14.492;2022-12-15T05:00:34;97034.03;;;-6.20;82.59
75788;BME280;64406;50.024;14.492;2022-12-15T05:03:19;97035.03;;;-6.14;82.54
75788;BME280;64406;50.024;14.492;2022-12-15T05:06:03;97047.31;;;-6.08;82.11
75788;BME280;64406;50.024;14.492;2022-12-15T05:08:48;97049.13;;;-6.02;82.21
75788;BME280;64406;50.024;14.492;2022-12-15T05:11:32;97047.94;;;-5.99;82.48
75788;BME280;64406;50.024;14.492;2022-12-15T05:14:16;97057.41;;;-5.92;82.11
75788;BME280;64406;50.024;14.492;2022-12-15T05:17:00;97054.78;;;-5.92;82.82
75788;BME280;64406;50.024;14.492;2022-12-15T05:19:44;97057.41;;;-5.92;81.93
75788;BME280;64406;50.024;14.492;2022-12-15T05:22:28;97056.38;;;-5.84;82.54
75788;BME280;64406;50.024;14.492;2022-12-15T05:25:12;97067.63;;;-5.70;81.10
75788;BME280;64406;50.024;14.492;2022-12-15T05:27:56;97072.91;;;-5.77;81.76
75788;BME280;64406;50.024;14.492;2022-12-15T05:30:41;97077.13;;;-5.83;81.85
75788;BME280;64406;50.024;14.492;2022-12-15T05:33:25;97080.16;;;-5.79;82.01
75788;BME280;64406;50.024;14.492;2022-12-15T05:35:50;97076.13;;;-5.82;81.58
75788;BME280;64406;50.024;14.492;2022-12-15T05:38:16;97086.44;;;-5.87;81.80
75788;BME280;64406;50.024;14.492;2022-12-15T05:40:43;97090.91;;;-5.94;81.83
75788;BME280;64406;50.024;14.492;2022-12-15T05:43:08;97102.78;;;-5.91;81.29
75788;BME280;64406;50.024;14.492;2022-12-15T05:45:34;97119.53;;;-5.92;81.73
75788;BME280;64406;50.024;14.492;2022-12-15T05:47:59;97117.13;;;-5.94;82.26
75788;BME280;64406;50.024;14.492;2022-12-15T05:50:25;97106.38;;;-5.86;81.52
75788;BME280;64406;50.024;14.492;2022-12-15T05:52:50;97119.91;;;-5.95;81.95
75788;BME280;64406;50.024;14.492;2022-12-15T05:55:17;97122.34;;;-5.87;81.67
75788;BME280;64406;50.024;14.492;2022-12-15T05:57:44;97116.09;;;-5.93;81.81
75788;BME280;64406;50.024;14.492;2022-12-15T06:00:10;97114.06;;;-5.91;81.75
75788;BME280;64406;50.024;14.492;2022-12-15T06:02:35;97120.34;;;-5.92;82.04
75788;BME280;64406;50.024;14.492;2022-12-15T06:05:01;97123.56;;;-5.96;82.30
75788;BME280;64406;50.024;14.492;2022-12-15T06:07:26;97126.38;;;-5.91;81.53
75788;BME280;64406;50.024;14.492;2022-12-15T06:09:52;97125.94;;;-5.88;82.01
75788;BME280;64406;50.024;14.492;2022-12-15T06:12:17;97118.69;;;-5.86;81.92
75788;BME280;64406;50.024;14.492;2022-12-15T06:14:43;97128.56;;;-5.82;81.34
75788;BME280;64406;50.024;14.492;2022-12-15T06:17:09;97133.41;;;-5.79;81.10
75788;BME280;64406;50.024;14.492;2022-12-15T06:19:34;97137.66;;;-5.84;82.15
75788;BME280;64406;50.024;14.492;2022-12-15T06:22:00;97148.72;;;-5.89;81.79
75788;BME280;64406;50.024;14.492;2022-12-15T06:24:26;97166.28;;;-5.89;82.59
75788;BME280;64406;50.024;14.492;2022-12-15T06:26:51;97170.13;;;-5.98;82.03
75788;BME280;64406;50.024;14.492;2022-12-15T06:29:17;97169.94;;;-5.97;82.61
75788;BME280;64406;50.024;14.492;2022-12-15T06:31:43;97176.19;;;-5.98;82.82
75788;BME280;64406;50.024;14.492;2022-12-15T06:34:14;97181.44;;;-5.98;82.37
75788;BME280;64406;50.024;14.492;2022-12-15T06:36:41;97174.78;;;-5.94;82.97
75788;BME280;64406;50.024;14.492;2022-12-15T06:39:10;97187.03;;;-5.88;82.55
75788;BME280;64406;50.024;14.492;2022-12-15T06:41:36;97178.59;;;-5.96;83.05
75788;BME280;64406;50.024;14.492;2022-12-15T06:44:03;97195.13;;;-5.89;83.41
75788;BME280;64406;50.024;14.492;2022-12-15T06:46:30;97199.16;;;-5.87;82.98
75788;BME280;64406;50.024;14.492;2022-12-15T06:48:57;97187.91;;;-5.94;82.49
75788;BME280;64406;50.024;14.492;2022-12-15T06:51:23;97183.00;;;-5.90;82.88
75788;BME280;64406;50.024;14.492;2022-12-15T06:53:50;97178.00;;;-5.92;82.23
75788;BME280;64406;50.024;14.492;2022-12-15T06:56:30;97183.03;;;-5.97;83.28
75788;BME280;64406;50.024;14.492;2022-12-15T06:58:57;97207.66;;;-5.98;82.41
75788;BME280;64406;50.024;14.492;2022-12-15T07:01:24;97204.00;;;-6.04;82.73
75788;BME280;64406;50.024;14.492;2022-12-15T07:03:51;97218.34;;;-5.93;82.42
75788;BME280;64406;50.024;14.492;2022-12-15T07:06:17;97221.53;;;-6.11;82.78
75788;BME280;64406;50.024;14.492;2022-12-15T07:08:43;97222.94;;;-6.08;82.34
75788;BME280;64406;50.024;14.492;2022-12-15T07:11:12;97226.34;;;-6.08;82.62
75788;BME280;64406;50.024;14.492;2022-12-15T07:13:39;97226.97;;;-6.12;82.81
75788;BME280;64406;50.024;14.492;2022-12-15T07:16:05;97220.53;;;-6.03;82.70
75788;BME280;64406;50.024;14.492;2022-12-15T07:18:32;97208.00;;;-6.08;82.49
75788;BME280;64406;50.024;14.492;2022-12-15T07:21:06;97207.84;;;-5.86;82.58
75788;BME280;64406;50.024;14.492;2022-12-15T07:23:33;97212.09;;;-5.72;81.86
75788;BME280;64406;50.024;14.492;2022-12-15T07:26:06;97209.03;;;-5.76;82.39
75788;BME280;64406;50.024;14.492;2022-12-15T07:28:32;97210.66;;;-5.68;82.00
75788;BME280;64406;50.024;14.492;2022-12-15T07:31:06;97222.38;;;-5.57;82.31
75788;BME280;64406;50.024;14.492;2022-12-15T07:33:34;97232.50;;;-5.54;82.42
75788;BME280;64406;50.024;14.492;2022-12-15T07:36:00;97218.97;;;-5.38;81.26
75788;BME280;64406;50.024;14.492;2022-12-15T07:38:26;97222.19;;;-5.29;81.18
75788;BME280;64406;50.024;14.492;2022-12-15T07:40:53;97226.81;;;-5.25;81.67
75788;BME280;64406;50.024;14.492;2022-12-15T07:43:20;97229.25;;;-5.23;80.85
75788;BME280;64406;50.024;14.492;2022-12-15T07:45:53;97226.81;;;-5.25;80.34
75788;BME280;64406;50.024;14.492;2022-12-15T07:48:19;97236.53;;;-5.32;80.42
75788;BME280;64406;50.024;14.492;2022-12-15T07:50:44;97244.41;;;-5.38;81.40
75788;BME280;64406;50.024;14.492;2022-12-15T07:53:10;97239.75;;;-5.30;80.53
75788;BME280;64406;50.024;14.492;2022-12-15T07:55:36;97247.63;;;-5.36;80.85
75788;BME280;64406;50.024;14.492;2022-12-15T07:58:02;97256.09;;;-5.48;81.87
75788;BME280;64406;50.024;14.492;2022-12-15T08:00:27;97256.13;;;-5.41;81.34
75788;BME280;64406;50.024;14.492;2022-12-15T08:02:53;97258.53;;;-5.46;81.06
75788;BME280;64406;50.024;14.492;2022-12-15T08:05:19;97266.59;;;-5.54;81.26
75788;BME280;64406;50.024;14.492;2022-12-15T08:07:45;97275.66;;;-5.63;82.04
75788;BME280;64406;50.024;14.492;2022-12-15T08:10:11;97283.28;;;-5.75;81.76
75788;BME280;64406;50.024;14.492;2022-12-15T08:12:36;97281.47;;;-5.75;81.76
75788;BME280;64406;50.024;14.492;2022-12-15T08:15:02;97281.66;;;-5.83;82.76
75788;BME280;64406;50.024;14.492;2022-12-15T08:17:28;97292.13;;;-5.89;82.44
75788;BME280;64406;50.024;14.492;2022-12-15T08:19:53;97300.00;;;-5.96;82.94
75788;BME280;64406;50.024;14.492;2022-12-15T08:22:19;97296.56;;;-5.90;82.78
75788;BME280;64406;50.024;14.492;2022-12-15T08:24:44;97292.34;;;-5.84;82.76
75788;BME280;64406;50.024;14.492;2022-12-15T08:27:10;97290.97;;;-5.73;82.94
75788;BME280;64406;50.024;14.492;2022-12-15T08:29:36;97298.66;;;-5.65;82.83
75788;BME280;64406;50.024;14.492;2022-12-15T08:32:01;97281.50;;;-5.55;82.27
75788;BME280;64406;50.024;14.492;2022-12-15T08:34:27;97286.59;;;-5.47;81.49
75788;BME280;64406;50.024;14.492;2022-12-15T08:36:52;97292.63;;;-5.46;81.64
75788;BME280;64406;50.024;14.492;2022-12-15T08:39:18;97295.25;;;-5.39;81.95
75788;BME280;64406;50.024;14.492;2022-12-15T08:41:45;97304.94;;;-5.47;82.38
75788;BME280;64406;50.024;14.492;2022-12-15T08:44:11;97299.06;;;-5.49;82.70
75788;BME280;64406;50.024;14.492;2022-12-15T08:46:37;97311.41;;;-5.36;82.27
75788;BME280;64406;50.024;14.492;2022-12-15T08:49:02;97316.28;;;-5.26;82.30
75788;BME280;64406;50.024;14.492;2022-12-15T08:51:30;97320.72;;;-5.27;82.07
75788;BME280;64406;50.024;14.492;2022-12-15T08:53:57;97314.03;;;-5.23;81.90
75788;BME280;64406;50.024;14.492;2022-12-15T08:56:24;97303.38;;;-5.14;81.73
75788;BME280;64406;50.024;14.492;2022-12-15T08:58:54;97306.59;;;-5.12;81.80
75788;BME280;64406;50.024;14.492;2022-12-15T09:01:21;97308.00;;;-5.16;81.34
75788;BME280;64406;50.024;14.492;2022-12-15T09:03:49;97316.50;;;-5.14;81.67
75788;BME280;64406;50.024;14.492;2022-12-15T09:06:38;97322.94;;;-5.04;82.10
75788;BME280;64406;50.024;14.492;2022-12-15T09:09:06;97318.69;;;-4.92;81.28
75788;BME280;64406;50.024;14.492;2022-12-15T09:11:33;97320.09;;;-4.89;80.95
75788;BME280;64406;50.024;14.492;2022-12-15T09:13:59;97313.44;;;-4.78;81.30
75788;BME280;64406;50.024;14.492;2022-12-15T09:16:25;97316.88;;;-4.71;80.64
75788;BME280;64406;50.024;14.492;2022-12-15T09:18:54;97317.06;;;-4.66;80.41
75788;BME280;64406;50.024;14.492;2022-12-15T09:21:22;97320.50;;;-4.59;79.92
75788;BME280;64406;50.024;14.492;2022-12-15T09:23:51;97317.88;;;-4.66;79.65
75788;BME280;64406;50.024;14.492;2022-12-15T09:26:18;97320.06;;;-4.56;79.74
75788;BME280;64406;50.024;14.492;2022-12-15T09:28:44;97313.63;;;-4.53;79.93
75788;BME280;64406;50.024;14.492;2022-12-15T09:31:12;97313.97;;;-4.43;79.50
75788;BME280;64406;50.024;14.492;2022-12-15T09:33:39;97309.94;;;-4.39;79.24
75788;BME280;64406;50.024;14.492;2022-12-15T09:36:06;97305.69;;;-4.33;79.14
75788;BME280;64406;50.024;14.492;2022-12-15T09:38:33;97310.50;;;-4.30;79.22
75788;BME280;64406;50.024;14.492;2022-12-15T09:41:27;97322.00;;;-4.18;79.54
75788;BME280;64406;50.024;14.492;2022-12-15T09:46:47;97333.25;;;-3.98;78.95
75788;BME280;64406;50.024;14.492;2022-12-15T09:52:42;97349.78;;;-3.77;77.97
75788;BME280;64406;50.024;14.492;2022-12-15T09:55:21;97336.22;;;-3.74;77.59
75788;BME280;64406;50.024;14.492;2022-12-15T10:00:55;97342.81;;;-3.59;77.06
75788;BME280;64406;50.024;14.492;2022-12-15T10:06:32;97346.22;;;-3.51;76.15
75788;BME280;64406;50.024;14.492;2022-12-15T10:09:02;97337.94;;;-3.55;76.05
75788;BME280;64406;50.024;14.492;2022-12-15T10:11:38;97337.69;;;-3.47;75.98
75788;BME280;64406;50.024;14.492;2022-12-15T10:21:58;97340.00;;;-3.25;75.68
75788;BME280;64406;50.024;14.492;2022-12-15T10:24:28;97340.22;;;-3.27;75.84
75788;BME280;64406;50.024;14.492;2022-12-15T10:30:13;97370.78;;;-3.26;75.06
75788;BME280;64406;50.024;14.492;2022-12-15T10:35:28;97362.47;;;-3.23;74.91
75788;BME280;64406;50.024;14.492;2022-12-15T10:38:22;97367.53;;;-3.21;75.02
75788;BME280;64406;50.024;14.492;2022-12-15T10:40:47;97379.09;;;-3.22;74.57
75788;BME280;64406;50.024;14.492;2022-12-15T10:43:24;97366.06;;;-3.17;75.06
75788;BME280;64406;50.024;14.492;2022-12-15T10:46:20;97361.94;;;-3.07;75.25
75788;BME280;64406;50.024;14.492;2022-12-15T10:48:47;97356.88;;;-3.02;74.31
75788;BME280;64406;50.024;14.492;2022-12-15T10:51:24;97358.03;;;-2.97;73.84
75788;BME280;64406;50.024;14.492;2022-12-15T10:53:53;97347.09;;;-2.94;74.11
75788;BME280;64406;50.024;14.492;2022-12-15T10:56:27;97342.28;;;-3.04;74.46
75788;BME280;64406;50.024;14.492;2022-12-15T10:58:55;97334.75;;;-3.01;73.94
75788;BME280;64406;50.024;14.492;2022-12-15T11:01:27;97328.47;;;-2.99;75.00
75788;BME280;64406;50.024;14.492;2022-12-15T11:03:53;97320.84;;;-2.83;74.61
75788;BME280;64406;50.024;14.492;2022-12-15T11:06:22;97320.94;;;-2.71;74.10
75788;BME280;64406;50.024;14.492;2022-12-15T11:08:50;97322.69;;;-2.65;74.90
75788;BME280;64406;50.024;14.492;2022-12-15T11:11:46;97316.78;;;-2.60;74.72
75788;BME280;64406;50.024;14.492;2022-12-15T11:14:45;97311.78;;;-2.43;73.46
75788;BME280;64406;50.024;14.492;2022-12-15T11:17:20;97298.38;;;-2.42;74.42
75788;BME280;64406;50.024;14.492;2022-12-15T11:20:19;97295.88;;;-2.37;73.38
75788;BME280;64406;50.024;14.492;2022-12-15T11:23:20;97299.31;;;-2.36;72.81
75788;BME280;64406;50.024;14.492;2022-12-15T11:25:58;97300.56;;;-2.21;72.20
75788;BME280;64406;50.024;14.492;2022-12-15T11:28:35;97280.56;;;-2.10;72.63
75788;BME280;64406;50.024;14.492;2022-12-15T11:33:35;97288.91;;;-1.95;71.84
75788;BME280;64406;50.024;14.492;2022-12-15T11:36:19;97284.56;;;-1.89;71.44
75788;BME280;64406;50.024;14.492;2022-12-15T11:38:59;97281.56;;;-1.93;71.86
75788;BME280;64406;50.024;14.492;2022-12-15T11:41:44;97294.91;;;-1.87;71.18
75788;BME280;64406;50.024;14.492;2022-12-15T11:44:38;97296.72;;;-1.88;70.90
75788;BME280;64406;50.024;14.492;2022-12-15T11:47:11;97289.75;;;-1.82;71.75
75788;BME280;64406;50.024;14.492;2022-12-15T11:56:12;97293.94;;;-1.75;71.32
75788;BME280;64406;50.024;14.492;2022-12-15T12:09:32;97287.38;;;-1.42;70.46
75788;BME280;64406;50.024;14.492;2022-12-15T12:14:43;97290.78;;;-1.53;71.05
75788;BME280;64406;50.024;14.492;2022-12-15T12:17:29;97296.25;;;-1.37;70.46
75788;BME280;64406;50.024;14.492;2022-12-15T12:19:59;97294.00;;;-1.21;69.46
75788;BME280;64406;50.024;14.492;2022-12-15T12:22:31;97297.22;;;-1.19;70.08
75788;BME280;64406;50.024;14.492;2022-12-15T12:25:02;97288.38;;;-1.25;70.20
75788;BME280;64406;50.024;14.492;2022-12-15T12:30:12;97296.88;;;-1.23;69.90
75788;BME280;64406;50.024;14.492;2022-12-15T12:37:59;97274.22;;;-1.30;69.89
75788;BME280;64406;50.024;14.492;2022-12-15T12:40:45;97281.56;;;-1.32;69.78
75788;BME280;64406;50.024;14.492;2022-12-15T12:43:32;97295.59;;;-1.32;69.69
75788;BME280;64406;50.024;14.492;2022-12-15T12:46:19;97288.25;;;-1.30;68.95
75788;BME280;64406;50.024;14.492;2022-12-15T12:48:55;97294.00;;;-1.21;70.00
75788;BME280;64406;50.024;14.492;2022-12-15T12:51:35;97293.03;;;-1.39;69.17
75788;BME280;64406;50.024;14.492;2022-12-15T12:54:38;97281.69;;;-1.27;69.15
75788;BME280;64406;50.024;14.492;2022-12-15T12:56:55;97288.34;;;-1.37;69.91
75788;BME280;64406;50.024;14.492;2022-12-15T13:02:38;97303.00;;;-1.11;70.08
75788;BME280;64406;50.024;14.492;2022-12-15T13:05:31;97295.06;;;-1.11;69.80
75788;BME280;64406;50.024;14.492;2022-12-15T13:10:38;97302.56;;;-1.38;70.61
75788;BME280;64406;50.024;14.492;2022-12-15T13:16:08;97303.88;;;-1.58;70.51
75788;BME280;64406;50.024;14.492;2022-12-15T13:18:58;97298.09;;;-1.67;70.13
75788;BME280;64406;50.024;14.492;2022-12-15T13:29:33;97319.75;;;-2.13;71.57
75788;BME280;64406;50.024;14.492;2022-12-15T13:32:00;97338.94;;;-2.25;71.41
75788;BME280;64406;50.024;14.492;2022-12-15T13:34:27;97346.56;;;-2.35;71.76
75788;BME280;64406;50.024;14.492;2022-12-15T13:36:55;97350.28;;;-2.42;71.94
75788;BME280;64406;50.024;14.492;2022-12-15T13:47:05;97330.41;;;-2.63;72.79
75788;BME280;64406;50.024;14.492;2022-12-15T13:49:37;97338.16;;;-2.68;72.68
75788;BME280;64406;50.024;14.492;2022-12-15T13:52:11;97333.31;;;-2.71;73.15
75788;BME280;64406;50.024;14.492;2022-12-15T13:54:40;97328.69;;;-2.76;73.44
75788;BME280;64406;50.024;14.492;2022-12-15T13:57:13;97327.09;;;-2.77;73.40
75788;BME280;64406;50.024;14.492;2022-12-15T13:59:56;97325.72;;;-2.86;73.40
75788;BME280;64406;50.024;14.492;2022-12-15T14:02:33;97336.59;;;-3.01;73.62
75788;BME280;64406;50.024;14.492;2022-12-15T14:07:34;97336.63;;;-3.08;74.38
75788;BME280;64406;50.024;14.492;2022-12-15T14:10:00;97331.19;;;-3.13;73.91
75788;BME280;64406;50.024;14.492;2022-12-15T14:12:28;97321.28;;;-3.17;73.90
75788;BME280;64406;50.024;14.492;2022-12-15T14:14:54;97319.53;;;-3.23;74.26
75788;BME280;64406;50.024;14.492;2022-12-15T14:17:20;97325.25;;;-3.33;74.51
75788;BME280;64406;50.024;14.492;2022-12-15T14:19:48;97318.38;;;-3.34;74.83
75788;BME280;64406;50.024;14.492;2022-12-15T14:22:26;97325.28;;;-3.40;75.53
75788;BME280;64406;50.024;14.492;2022-12-15T14:25:01;97321.50;;;-3.50;75.25
75788;BME280;64406;50.024;14.492;2022-12-15T14:27:29;97324.56;;;-3.53;75.64
75788;BME280;64406;50.024;14.492;2022-12-15T14:33:07;97318.56;;;-3.67;76.29
75788;BME280;64406;50.024;14.492;2022-12-15T14:35:39;97326.75;;;-3.82;75.87
75788;BME280;64406;50.024;14.492;2022-12-15T14:38:11;97321.50;;;-3.89;76.44
75788;BME280;64406;50.024;14.492;2022-12-15T14:40:39;97317.47;;;-3.91;76.79
75788;BME280;64406;50.024;14.492;2022-12-15T14:43:12;97313.03;;;-3.97;77.23
75788;BME280;64406;50.024;14.492;2022-12-15T14:45:40;97319.56;;;-4.13;77.48
75788;BME280;64406;50.024;14.492;2022-12-15T14:48:08;97313.72;;;-4.15;77.65
75788;BME280;64406;50.024;14.492;2022-12-15T14:50:34;97316.97;;;-4.20;77.62
75788;BME280;64406;50.024;14.492;2022-12-15T14:53:04;97329.53;;;-4.28;78.46
75788;BME280;64406;50.024;14.492;2022-12-15T14:55:36;97328.94;;;-4.37;78.29
75788;BME280;64406;50.024;14.492;2022-12-15T15:00:52;97345.94;;;-4.46;79.02
75788;BME280;64406;50.024;14.492;2022-12-15T15:03:21;97342.09;;;-4.57;79.32
75788;BME280;64406;50.024;14.492;2022-12-15T15:05:50;97337.47;;;-4.55;79.30
75788;BME280;64406;50.024;14.492;2022-12-15T15:08:25;97337.84;;;-4.51;78.94